sensor_id;sensor_type;location;lat;lon;timestamp;P1;durP1;ratioP1;P2;durP2;ratioP2
62123;SDS011;48110;47.532;19.078;2022-09-09T00:02:21;1.95;;;1.25;;
62123;SDS011;48110;47.532;19.078;2022-09-09T00:05:33;2.42;;;1.37;;
62123;SDS011;48110;47.532;19.078;2022-09-09T00:15:18;1.83;;;1.12;;
62123;SDS011;48110;47.532;19.078;2022-09-09T00:18:24;4.65;;;1.20;;
62123;SDS011;48110;47.532;19.078;2022-09-09T00:21:34;2.40;;;1.40;;
62123;SDS011;48110;47.532;19.078;2022-09-09T00:24:42;2.78;;;1.02;;
62123;SDS011;48110;47.532;19.078;2022-09-09T00:27:48;2.58;;;1.40;;
62123;SDS011;48110;47.532;19.078;2022-09-09T00:30:53;1.30;;;1.10;;
62123;SDS011;48110;47.532;19.078;2022-09-09T00:33:58;2.00;;;1.08;;
62123;SDS011;48110;47.532;19.078;2022-09-09T00:37:07;1.52;;;1.20;;
62123;SDS011;48110;47.532;19.078;2022-09-09T00:40:17;1.60;;;1.30;;
62123;SDS011;48110;47.532;19.078;2022-09-09T00:46:41;1.30;;;1.17;;
62123;SDS011;48110;47.532;19.078;2022-09-09T01:00:30;1.90;;;1.50;;
62123;SDS011;48110;47.532;19.078;2022-09-09T01:03:56;1.50;;;1.40;;
62123;SDS011;48110;47.532;19.078;2022-09-09T01:07:12;1.73;;;1.40;;
62123;SDS011;48110;47.532;19.078;2022-09-09T01:10:24;1.30;;;1.20;;
62123;SDS011;48110;47.532;19.078;2022-09-09T01:13:34;2.35;;;1.80;;
62123;SDS011;48110;47.532;19.078;2022-09-09T01:16:39;3.78;;;1.90;;
62123;SDS011;48110;47.532;19.078;2022-09-09T01:29:27;4.50;;;1.80;;
62123;SDS011;48110;47.532;19.078;2022-09-09T01:32:41;4.65;;;1.62;;
62123;SDS011;48110;47.532;19.078;2022-09-09T01:35:59;6.00;;;1.80;;
62123;SDS011;48110;47.532;19.078;2022-09-09T01:39:07;3.15;;;1.70;;
62123;SDS011;48110;47.532;19.078;2022-09-09T01:42:12;4.03;;;1.80;;
62123;SDS011;48110;47.532;19.078;2022-09-09T01:45:17;2.75;;;1.60;;
62123;SDS011;48110;47.532;19.078;2022-09-09T01:48:21;1.90;;;1.70;;
62123;SDS011;48110;47.532;19.078;2022-09-09T01:51:25;1.67;;;1.58;;
62123;SDS011;48110;47.532;19.078;2022-09-09T01:54:30;4.05;;;1.87;;
62123;SDS011;48110;47.532;19.078;2022-09-09T01:57:39;2.33;;;1.30;;
62123;SDS011;48110;47.532;19.078;2022-09-09T02:00:47;2.58;;;1.50;;
62123;SDS011;48110;47.532;19.078;2022-09-09T02:07:49;3.33;;;1.67;;
62123;SDS011;48110;47.532;19.078;2022-09-09T02:11:06;2.65;;;1.48;;
62123;SDS011;48110;47.532;19.078;2022-09-09T02:14:16;1.87;;;1.50;;
62123;SDS011;48110;47.532;19.078;2022-09-09T02:17:26;3.50;;;1.83;;
62123;SDS011;48110;47.532;19.078;2022-09-09T02:20:34;4.12;;;2.03;;
62123;SDS011;48110;47.532;19.078;2022-09-09T02:23:42;4.53;;;1.95;;
62123;SDS011;48110;47.532;19.078;2022-09-09T02:26:47;2.45;;;2.10;;
62123;SDS011;48110;47.532;19.078;2022-09-09T02:29:55;2.35;;;1.90;;
62123;SDS011;48110;47.532;19.078;2022-09-09T02:33:02;5.40;;;2.10;;
62123;SDS011;48110;47.532;19.078;2022-09-09T02:36:10;3.33;;;2.25;;
62123;SDS011;48110;47.532;19.078;2022-09-09T02:39:18;3.55;;;2.17;;
62123;SDS011;48110;47.532;19.078;2022-09-09T02:42:22;2.92;;;2.40;;
62123;SDS011;48110;47.532;19.078;2022-09-09T02:45:49;2.25;;;1.95;;
62123;SDS011;48110;47.532;19.078;2022-09-09T02:49:09;4.10;;;2.50;;
62123;SDS011;48110;47.532;19.078;2022-09-09T02:52:20;2.90;;;2.50;;
62123;SDS011;48110;47.532;19.078;2022-09-09T02:55:39;6.07;;;2.37;;
62123;SDS011;48110;47.532;19.078;2022-09-09T02:58:51;5.25;;;2.53;;
62123;SDS011;48110;47.532;19.078;2022-09-09T03:01:54;4.37;;;2.60;;
62123;SDS011;48110;47.532;19.078;2022-09-09T03:04:57;3.20;;;2.62;;
62123;SDS011;48110;47.532;19.078;2022-09-09T03:08:01;5.45;;;2.80;;
62123;SDS011;48110;47.532;19.078;2022-09-09T03:11:06;2.70;;;2.50;;
62123;SDS011;48110;47.532;19.078;2022-09-09T03:14:11;2.97;;;2.60;;
62123;SDS011;48110;47.532;19.078;2022-09-09T03:17:15;3.47;;;2.67;;
62123;SDS011;48110;47.532;19.078;2022-09-09T03:20:19;3.10;;;2.80;;
62123;SDS011;48110;47.532;19.078;2022-09-09T03:23:23;5.43;;;2.62;;
62123;SDS011;48110;47.532;19.078;2022-09-09T03:26:26;3.90;;;2.58;;
62123;SDS011;48110;47.532;19.078;2022-09-09T03:29:30;2.95;;;2.70;;
62123;SDS011;48110;47.532;19.078;2022-09-09T03:32:34;5.70;;;2.92;;
62123;SDS011;48110;47.532;19.078;2022-09-09T03:35:37;6.93;;;2.90;;
62123;SDS011;48110;47.532;19.078;2022-09-09T03:38:40;3.00;;;2.70;;
62123;SDS011;48110;47.532;19.078;2022-09-09T03:41:44;3.10;;;2.80;;
62123;SDS011;48110;47.532;19.078;2022-09-09T03:44:49;4.35;;;3.22;;
62123;SDS011;48110;47.532;19.078;2022-09-09T03:47:53;3.58;;;2.75;;
62123;SDS011;48110;47.532;19.078;2022-09-09T03:50:56;3.87;;;2.80;;
62123;SDS011;48110;47.532;19.078;2022-09-09T03:54:04;3.72;;;3.00;;
62123;SDS011;48110;47.532;19.078;2022-09-09T03:57:10;3.62;;;3.00;;
62123;SDS011;48110;47.532;19.078;2022-09-09T04:00:13;4.55;;;2.58;;
62123;SDS011;48110;47.532;19.078;2022-09-09T04:03:17;3.40;;;3.00;;
62123;SDS011;48110;47.532;19.078;2022-09-09T04:06:28;2.92;;;2.60;;
62123;SDS011;48110;47.532;19.078;2022-09-09T04:09:32;3.37;;;2.80;;
62123;SDS011;48110;47.532;19.078;2022-09-09T04:12:36;2.53;;;2.30;;
62123;SDS011;48110;47.532;19.078;2022-09-09T04:15:38;3.00;;;2.70;;
62123;SDS011;48110;47.532;19.078;2022-09-09T04:18:42;4.15;;;2.75;;
62123;SDS011;48110;47.532;19.078;2022-09-09T04:21:45;3.72;;;2.60;;
62123;SDS011;48110;47.532;19.078;2022-09-09T04:24:48;3.62;;;2.55;;
62123;SDS011;48110;47.532;19.078;2022-09-09T04:27:55;3.08;;;2.45;;
62123;SDS011;48110;47.532;19.078;2022-09-09T04:31:06;2.67;;;2.47;;
62123;SDS011;48110;47.532;19.078;2022-09-09T04:34:11;2.90;;;2.42;;
62123;SDS011;48110;47.532;19.078;2022-09-09T04:37:15;5.93;;;2.37;;
62123;SDS011;48110;47.532;19.078;2022-09-09T04:40:17;2.87;;;2.40;;
62123;SDS011;48110;47.532;19.078;2022-09-09T04:43:21;4.15;;;2.78;;
62123;SDS011;48110;47.532;19.078;2022-09-09T04:46:25;4.35;;;2.55;;
62123;SDS011;48110;47.532;19.078;2022-09-09T04:49:28;3.03;;;2.22;;
62123;SDS011;48110;47.532;19.078;2022-09-09T04:52:34;4.68;;;2.50;;
62123;SDS011;48110;47.532;19.078;2022-09-09T04:55:38;2.58;;;2.08;;
62123;SDS011;48110;47.532;19.078;2022-09-09T04:58:41;2.92;;;2.17;;
62123;SDS011;48110;47.532;19.078;2022-09-09T05:01:48;3.15;;;2.28;;
62123;SDS011;48110;47.532;19.078;2022-09-09T05:04:52;3.37;;;2.30;;
62123;SDS011;48110;47.532;19.078;2022-09-09T05:08:00;6.78;;;2.90;;
62123;SDS011;48110;47.532;19.078;2022-09-09T05:11:13;3.15;;;2.37;;
62123;SDS011;48110;47.532;19.078;2022-09-09T05:14:21;3.20;;;2.37;;
62123;SDS011;48110;47.532;19.078;2022-09-09T05:17:25;3.67;;;2.78;;
62123;SDS011;48110;47.532;19.078;2022-09-09T05:20:28;5.20;;;3.10;;
62123;SDS011;48110;47.532;19.078;2022-09-09T05:23:31;5.53;;;2.50;;
62123;SDS011;48110;47.532;19.078;2022-09-09T05:26:34;4.35;;;2.50;;
62123;SDS011;48110;47.532;19.078;2022-09-09T05:29:37;4.12;;;2.37;;
62123;SDS011;48110;47.532;19.078;2022-09-09T05:32:41;3.87;;;2.65;;
62123;SDS011;48110;47.532;19.078;2022-09-09T05:35:44;2.65;;;2.20;;
62123;SDS011;48110;47.532;19.078;2022-09-09T05:38:47;4.50;;;2.12;;
62123;SDS011;48110;47.532;19.078;2022-09-09T05:41:51;3.42;;;2.40;;
62123;SDS011;48110;47.532;19.078;2022-09-09T05:44:54;3.75;;;2.40;;
62123;SDS011;48110;47.532;19.078;2022-09-09T05:47:57;4.43;;;2.50;;
62123;SDS011;48110;47.532;19.078;2022-09-09T05:51:02;3.30;;;2.33;;
62123;SDS011;48110;47.532;19.078;2022-09-09T05:54:06;4.35;;;2.35;;
62123;SDS011;48110;47.532;19.078;2022-09-09T05:57:09;4.25;;;2.28;;
62123;SDS011;48110;47.532;19.078;2022-09-09T06:00:12;3.85;;;2.10;;
62123;SDS011;48110;47.532;19.078;2022-09-09T06:03:18;2.47;;;1.87;;
62123;SDS011;48110;47.532;19.078;2022-09-09T06:06:24;2.15;;;1.80;;
62123;SDS011;48110;47.532;19.078;2022-09-09T06:09:30;4.45;;;2.10;;
62123;SDS011;48110;47.532;19.078;2022-09-09T06:12:32;3.08;;;2.00;;
62123;SDS011;48110;47.532;19.078;2022-09-09T06:15:36;4.18;;;2.17;;
62123;SDS011;48110;47.532;19.078;2022-09-09T06:18:39;2.67;;;1.77;;
62123;SDS011;48110;47.532;19.078;2022-09-09T06:21:43;3.65;;;1.80;;
62123;SDS011;48110;47.532;19.078;2022-09-09T06:24:46;3.70;;;1.60;;
62123;SDS011;48110;47.532;19.078;2022-09-09T06:27:49;2.65;;;1.85;;
62123;SDS011;48110;47.532;19.078;2022-09-09T06:30:57;3.92;;;1.73;;
62123;SDS011;48110;47.532;19.078;2022-09-09T06:34:01;1.50;;;1.40;;
62123;SDS011;48110;47.532;19.078;2022-09-09T06:37:04;2.65;;;1.33;;
62123;SDS011;48110;47.532;19.078;2022-09-09T06:40:10;3.35;;;1.40;;
62123;SDS011;48110;47.532;19.078;2022-09-09T06:43:13;3.08;;;1.30;;
62123;SDS011;48110;47.532;19.078;2022-09-09T06:46:21;3.60;;;1.20;;
62123;SDS011;48110;47.532;19.078;2022-09-09T06:49:26;3.70;;;1.17;;
62123;SDS011;48110;47.532;19.078;2022-09-09T06:52:29;1.10;;;1.00;;
62123;SDS011;48110;47.532;19.078;2022-09-09T06:55:31;6.40;;;1.00;;
62123;SDS011;48110;47.532;19.078;2022-09-09T06:58:35;1.83;;;0.80;;
62123;SDS011;48110;47.532;19.078;2022-09-09T07:01:47;1.40;;;1.10;;
62123;SDS011;48110;47.532;19.078;2022-09-09T07:04:57;4.62;;;1.20;;
62123;SDS011;48110;47.532;19.078;2022-09-09T07:08:01;2.33;;;1.05;;
62123;SDS011;48110;47.532;19.078;2022-09-09T07:11:05;3.67;;;1.20;;
62123;SDS011;48110;47.532;19.078;2022-09-09T07:17:18;2.67;;;1.27;;
62123;SDS011;48110;47.532;19.078;2022-09-09T07:20:21;4.18;;;1.20;;
62123;SDS011;48110;47.532;19.078;2022-09-09T07:23:24;5.77;;;1.27;;
62123;SDS011;48110;47.532;19.078;2022-09-09T07:26:30;1.95;;;1.30;;
62123;SDS011;48110;47.532;19.078;2022-09-09T07:29:34;1.65;;;1.10;;
62123;SDS011;48110;47.532;19.078;2022-09-09T07:32:37;1.90;;;1.20;;
62123;SDS011;48110;47.532;19.078;2022-09-09T07:35:40;3.97;;;1.60;;
62123;SDS011;48110;47.532;19.078;2022-09-09T07:38:45;6.85;;;1.10;;
62123;SDS011;48110;47.532;19.078;2022-09-09T07:41:50;2.22;;;1.00;;
62123;SDS011;48110;47.532;19.078;2022-09-09T07:44:53;2.90;;;1.10;;
62123;SDS011;48110;47.532;19.078;2022-09-09T07:47:57;5.62;;;1.08;;
62123;SDS011;48110;47.532;19.078;2022-09-09T07:51:08;1.37;;;1.00;;
62123;SDS011;48110;47.532;19.078;2022-09-09T07:54:19;3.65;;;0.80;;
62123;SDS011;48110;47.532;19.078;2022-09-09T07:57:23;0.85;;;0.80;;
62123;SDS011;48110;47.532;19.078;2022-09-09T08:00:26;1.20;;;0.90;;
62123;SDS011;48110;47.532;19.078;2022-09-09T08:03:34;2.22;;;0.90;;
62123;SDS011;48110;47.532;19.078;2022-09-09T08:06:39;4.05;;;0.82;;
62123;SDS011;48110;47.532;19.078;2022-09-09T08:09:44;2.65;;;1.02;;
62123;SDS011;48110;47.532;19.078;2022-09-09T08:12:46;1.25;;;0.80;;
62123;SDS011;48110;47.532;19.078;2022-09-09T08:16:17;1.83;;;0.88;;
62123;SDS011;48110;47.532;19.078;2022-09-09T08:19:24;3.40;;;0.80;;
62123;SDS011;48110;47.532;19.078;2022-09-09T08:22:27;3.08;;;0.70;;
62123;SDS011;48110;47.532;19.078;2022-09-09T08:25:30;2.80;;;0.80;;
62123;SDS011;48110;47.532;19.078;2022-09-09T08:28:33;1.92;;;0.70;;
62123;SDS011;48110;47.532;19.078;2022-09-09T08:31:37;3.65;;;0.77;;
62123;SDS011;48110;47.532;19.078;2022-09-09T08:34:41;0.62;;;0.50;;
62123;SDS011;48110;47.532;19.078;2022-09-09T08:37:52;2.20;;;0.70;;
62123;SDS011;48110;47.532;19.078;2022-09-09T08:40:58;6.20;;;0.80;;
62123;SDS011;48110;47.532;19.078;2022-09-09T08:44:18;1.23;;;0.70;;
62123;SDS011;48110;47.532;19.078;2022-09-09T08:50:51;1.87;;;0.93;;
62123;SDS011;48110;47.532;19.078;2022-09-09T08:53:55;2.00;;;0.73;;
62123;SDS011;48110;47.532;19.078;2022-09-09T08:57:03;6.60;;;0.70;;
62123;SDS011;48110;47.532;19.078;2022-09-09T09:00:18;1.90;;;0.77;;
62123;SDS011;48110;47.532;19.078;2022-09-09T09:17:14;2.42;;;0.95;;
62123;SDS011;48110;47.532;19.078;2022-09-09T09:20:24;1.73;;;0.60;;
62123;SDS011;48110;47.532;19.078;2022-09-09T09:23:41;1.50;;;0.90;;
62123;SDS011;48110;47.532;19.078;2022-09-09T09:26:48;2.25;;;0.75;;
62123;SDS011;48110;47.532;19.078;2022-09-09T09:29:52;0.73;;;0.57;;
62123;SDS011;48110;47.532;19.078;2022-09-09T09:36:40;2.65;;;0.62;;
62123;SDS011;48110;47.532;19.078;2022-09-09T09:39:47;0.95;;;0.73;;
62123;SDS011;48110;47.532;19.078;2022-09-09T09:43:16;1.45;;;0.80;;
62123;SDS011;48110;47.532;19.078;2022-09-09T09:46:24;4.45;;;0.80;;
62123;SDS011;48110;47.532;19.078;2022-09-09T09:49:29;2.80;;;1.27;;
62123;SDS011;48110;47.532;19.078;2022-09-09T09:52:32;2.70;;;1.10;;
62123;SDS011;48110;47.532;19.078;2022-09-09T09:55:44;5.07;;;0.80;;
62123;SDS011;48110;47.532;19.078;2022-09-09T09:58:56;1.60;;;0.70;;
62123;SDS011;48110;47.532;19.078;2022-09-09T10:02:13;1.85;;;0.88;;
62123;SDS011;48110;47.532;19.078;2022-09-09T10:05:29;2.35;;;0.80;;
62123;SDS011;48110;47.532;19.078;2022-09-09T10:08:45;1.60;;;0.80;;
62123;SDS011;48110;47.532;19.078;2022-09-09T10:18:55;1.67;;;0.70;;
62123;SDS011;48110;47.532;19.078;2022-09-09T10:25:52;2.85;;;0.70;;
62123;SDS011;48110;47.532;19.078;2022-09-09T10:32:41;1.40;;;0.70;;
62123;SDS011;48110;47.532;19.078;2022-09-09T10:35:53;3.10;;;0.73;;
62123;SDS011;48110;47.532;19.078;2022-09-09T10:42:44;1.40;;;0.70;;
62123;SDS011;48110;47.532;19.078;2022-09-09T10:45:59;1.50;;;0.65;;
62123;SDS011;48110;47.532;19.078;2022-09-09T10:52:31;3.05;;;0.80;;
62123;SDS011;48110;47.532;19.078;2022-09-09T10:55:45;2.70;;;0.70;;
62123;SDS011;48110;47.532;19.078;2022-09-09T10:58:58;2.65;;;1.23;;
62123;SDS011;48110;47.532;19.078;2022-09-09T11:02:21;1.42;;;0.73;;
62123;SDS011;48110;47.532;19.078;2022-09-09T11:05:31;1.73;;;0.70;;
62123;SDS011;48110;47.532;19.078;2022-09-09T11:08:44;0.90;;;0.45;;
62123;SDS011;48110;47.532;19.078;2022-09-09T11:15:04;1.30;;;0.80;;
62123;SDS011;48110;47.532;19.078;2022-09-09T11:18:19;0.47;;;0.40;;
62123;SDS011;48110;47.532;19.078;2022-09-09T11:21:26;0.70;;;0.57;;
62123;SDS011;48110;47.532;19.078;2022-09-09T11:32:15;1.40;;;0.65;;
62123;SDS011;48110;47.532;19.078;2022-09-09T11:41:32;3.53;;;0.52;;
62123;SDS011;48110;47.532;19.078;2022-09-09T11:44:39;1.35;;;0.55;;
62123;SDS011;48110;47.532;19.078;2022-09-09T11:47:50;2.85;;;0.50;;
62123;SDS011;48110;47.532;19.078;2022-09-09T11:51:03;1.67;;;0.55;;
62123;SDS011;48110;47.532;19.078;2022-09-09T11:54:28;1.90;;;0.60;;
62123;SDS011;48110;47.532;19.078;2022-09-09T11:57:34;1.25;;;0.40;;
62123;SDS011;48110;47.532;19.078;2022-09-09T12:00:39;1.92;;;0.50;;
62123;SDS011;48110;47.532;19.078;2022-09-09T12:03:47;2.15;;;0.50;;
62123;SDS011;48110;47.532;19.078;2022-09-09T12:13:34;2.58;;;0.40;;
62123;SDS011;48110;47.532;19.078;2022-09-09T12:16:38;1.90;;;0.55;;
62123;SDS011;48110;47.532;19.078;2022-09-09T12:19:42;1.15;;;0.60;;
62123;SDS011;48110;47.532;19.078;2022-09-09T12:26:13;0.80;;;0.60;;
62123;SDS011;48110;47.532;19.078;2022-09-09T12:29:27;1.00;;;0.40;;
62123;SDS011;48110;47.532;19.078;2022-09-09T12:33:01;0.82;;;0.50;;
62123;SDS011;48110;47.532;19.078;2022-09-09T12:36:11;0.80;;;0.50;;
62123;SDS011;48110;47.532;19.078;2022-09-09T12:39:29;0.90;;;0.50;;
62123;SDS011;48110;47.532;19.078;2022-09-09T12:42:39;0.77;;;0.50;;
62123;SDS011;48110;47.532;19.078;2022-09-09T12:45:43;0.82;;;0.40;;
62123;SDS011;48110;47.532;19.078;2022-09-09T12:48:47;1.50;;;0.80;;
62123;SDS011;48110;47.532;19.078;2022-09-09T12:51:50;1.33;;;0.57;;
62123;SDS011;48110;47.532;19.078;2022-09-09T12:54:53;0.88;;;0.40;;
62123;SDS011;48110;47.532;19.078;2022-09-09T12:57:56;2.00;;;0.50;;
62123;SDS011;48110;47.532;19.078;2022-09-09T13:01:02;1.60;;;0.60;;
62123;SDS011;48110;47.532;19.078;2022-09-09T13:04:19;0.95;;;0.50;;
62123;SDS011;48110;47.532;19.078;2022-09-09T13:07:24;1.33;;;0.52;;
62123;SDS011;48110;47.532;19.078;2022-09-09T13:10:28;1.40;;;0.68;;
62123;SDS011;48110;47.532;19.078;2022-09-09T13:13:54;2.47;;;0.40;;
62123;SDS011;48110;47.532;19.078;2022-09-09T13:16:59;1.15;;;0.50;;
62123;SDS011;48110;47.532;19.078;2022-09-09T13:20:05;1.10;;;0.60;;
62123;SDS011;48110;47.532;19.078;2022-09-09T13:23:08;1.60;;;0.50;;
62123;SDS011;48110;47.532;19.078;2022-09-09T13:26:26;3.70;;;0.60;;
62123;SDS011;48110;47.532;19.078;2022-09-09T13:29:30;0.98;;;0.40;;
62123;SDS011;48110;47.532;19.078;2022-09-09T13:32:34;0.80;;;0.50;;
62123;SDS011;48110;47.532;19.078;2022-09-09T13:35:56;0.77;;;0.40;;
62123;SDS011;48110;47.532;19.078;2022-09-09T13:39:02;1.65;;;0.55;;
62123;SDS011;48110;47.532;19.078;2022-09-09T13:42:19;2.03;;;0.70;;
62123;SDS011;48110;47.532;19.078;2022-09-09T13:45:27;2.20;;;0.60;;
62123;SDS011;48110;47.532;19.078;2022-09-09T13:48:30;0.52;;;0.40;;
62123;SDS011;48110;47.532;19.078;2022-09-09T13:51:38;1.87;;;0.62;;
62123;SDS011;48110;47.532;19.078;2022-09-09T13:54:50;2.35;;;1.25;;
62123;SDS011;48110;47.532;19.078;2022-09-09T13:58:01;0.80;;;0.50;;
62123;SDS011;48110;47.532;19.078;2022-09-09T14:01:07;2.20;;;0.70;;
62123;SDS011;48110;47.532;19.078;2022-09-09T14:04:10;0.50;;;0.40;;
62123;SDS011;48110;47.532;19.078;2022-09-09T14:07:13;4.50;;;0.50;;
62123;SDS011;48110;47.532;19.078;2022-09-09T14:10:17;3.03;;;1.08;;
62123;SDS011;48110;47.532;19.078;2022-09-09T14:13:20;0.80;;;0.50;;
62123;SDS011;48110;47.532;19.078;2022-09-09T14:16:26;2.15;;;0.57;;
62123;SDS011;48110;47.532;19.078;2022-09-09T14:19:30;0.95;;;0.50;;
62123;SDS011;48110;47.532;19.078;2022-09-09T14:22:33;1.67;;;0.60;;
62123;SDS011;48110;47.532;19.078;2022-09-09T14:25:38;4.20;;;0.40;;
62123;SDS011;48110;47.532;19.078;2022-09-09T14:28:42;2.12;;;0.75;;
62123;SDS011;48110;47.532;19.078;2022-09-09T14:32:01;2.83;;;0.50;;
62123;SDS011;48110;47.532;19.078;2022-09-09T14:35:04;0.80;;;0.50;;
62123;SDS011;48110;47.532;19.078;2022-09-09T14:38:07;3.37;;;0.70;;
62123;SDS011;48110;47.532;19.078;2022-09-09T14:41:11;2.72;;;0.70;;
62123;SDS011;48110;47.532;19.078;2022-09-09T14:44:15;2.90;;;0.75;;
62123;SDS011;48110;47.532;19.078;2022-09-09T14:47:18;3.05;;;0.70;;
62123;SDS011;48110;47.532;19.078;2022-09-09T14:50:22;1.20;;;0.50;;
62123;SDS011;48110;47.532;19.078;2022-09-09T14:53:25;1.23;;;0.50;;
62123;SDS011;48110;47.532;19.078;2022-09-09T14:56:29;1.40;;;0.62;;
62123;SDS011;48110;47.532;19.078;2022-09-09T14:59:37;1.67;;;1.00;;
62123;SDS011;48110;47.532;19.078;2022-09-09T15:02:39;2.45;;;1.92;;
62123;SDS011;48110;47.532;19.078;2022-09-09T15:05:42;8.95;;;1.17;;
62123;SDS011;48110;47.532;19.078;2022-09-09T15:08:45;1.08;;;0.50;;
62123;SDS011;48110;47.532;19.078;2022-09-09T15:11:48;0.95;;;0.50;;
62123;SDS011;48110;47.532;19.078;2022-09-09T15:14:51;2.83;;;0.70;;
62123;SDS011;48110;47.532;19.078;2022-09-09T15:17:56;3.70;;;0.55;;
62123;SDS011;48110;47.532;19.078;2022-09-09T15:21:02;1.40;;;0.57;;
62123;SDS011;48110;47.532;19.078;2022-09-09T15:24:07;3.45;;;0.65;;
62123;SDS011;48110;47.532;19.078;2022-09-09T15:27:10;1.02;;;0.70;;
62123;SDS011;48110;47.532;19.078;2022-09-09T15:30:13;1.58;;;0.60;;
62123;SDS011;48110;47.532;19.078;2022-09-09T15:33:16;1.17;;;0.70;;
62123;SDS011;48110;47.532;19.078;2022-09-09T15:36:22;3.08;;;0.60;;
62123;SDS011;48110;47.532;19.078;2022-09-09T15:39:27;0.73;;;0.50;;
62123;SDS011;48110;47.532;19.078;2022-09-09T15:42:30;1.75;;;0.60;;
62123;SDS011;48110;47.532;19.078;2022-09-09T15:45:33;3.80;;;0.77;;
62123;SDS011;48110;47.532;19.078;2022-09-09T15:48:36;2.30;;;0.60;;
62123;SDS011;48110;47.532;19.078;2022-09-09T15:52:02;3.40;;;0.83;;
62123;SDS011;48110;47.532;19.078;2022-09-09T15:55:06;0.62;;;0.43;;
62123;SDS011;48110;47.532;19.078;2022-09-09T15:58:10;2.00;;;0.73;;
62123;SDS011;48110;47.532;19.078;2022-09-09T16:01:14;7.75;;;0.70;;
62123;SDS011;48110;47.532;19.078;2022-09-09T16:04:19;1.80;;;0.50;;
62123;SDS011;48110;47.532;19.078;2022-09-09T16:07:25;1.27;;;0.57;;
62123;SDS011;48110;47.532;19.078;2022-09-09T16:10:29;2.00;;;0.60;;
62123;SDS011;48110;47.532;19.078;2022-09-09T16:13:33;2.05;;;0.70;;
62123;SDS011;48110;47.532;19.078;2022-09-09T16:16:37;3.58;;;1.33;;
62123;SDS011;48110;47.532;19.078;2022-09-09T16:19:40;1.60;;;0.60;;
62123;SDS011;48110;47.532;19.078;2022-09-09T16:22:43;2.62;;;0.70;;
62123;SDS011;48110;47.532;19.078;2022-09-09T16:25:55;0.95;;;0.70;;
62123;SDS011;48110;47.532;19.078;2022-09-09T16:28:58;2.20;;;0.70;;
62123;SDS011;48110;47.532;19.078;2022-09-09T16:32:02;2.17;;;0.70;;
62123;SDS011;48110;47.532;19.078;2022-09-09T16:35:06;4.50;;;0.90;;
62123;SDS011;48110;47.532;19.078;2022-09-09T16:38:08;1.25;;;0.60;;
62123;SDS011;48110;47.532;19.078;2022-09-09T16:41:13;1.20;;;0.73;;
62123;SDS011;48110;47.532;19.078;2022-09-09T16:44:16;3.78;;;0.85;;
62123;SDS011;48110;47.532;19.078;2022-09-09T16:47:21;1.95;;;1.00;;
62123;SDS011;48110;47.532;19.078;2022-09-09T16:50:23;1.80;;;0.80;;
62123;SDS011;48110;47.532;19.078;2022-09-09T16:53:26;1.77;;;0.90;;
62123;SDS011;48110;47.532;19.078;2022-09-09T16:56:30;1.23;;;0.70;;
62123;SDS011;48110;47.532;19.078;2022-09-09T17:02:42;3.00;;;1.00;;
62123;SDS011;48110;47.532;19.078;2022-09-09T17:05:47;5.57;;;1.85;;
62123;SDS011;48110;47.532;19.078;2022-09-09T17:08:56;5.82;;;1.50;;
62123;SDS011;48110;47.532;19.078;2022-09-09T17:12:01;4.07;;;1.33;;
62123;SDS011;48110;47.532;19.078;2022-09-09T17:15:04;2.30;;;1.10;;
62123;SDS011;48110;47.532;19.078;2022-09-09T17:18:09;4.18;;;1.35;;
62123;SDS011;48110;47.532;19.078;2022-09-09T17:21:14;1.65;;;0.90;;
62123;SDS011;48110;47.532;19.078;2022-09-09T17:24:19;3.17;;;1.20;;
62123;SDS011;48110;47.532;19.078;2022-09-09T17:27:21;18.48;;;3.30;;
62123;SDS011;48110;47.532;19.078;2022-09-09T17:30:25;8.48;;;2.35;;
62123;SDS011;48110;47.532;19.078;2022-09-09T17:33:28;9.52;;;1.87;;
62123;SDS011;48110;47.532;19.078;2022-09-09T17:36:35;9.50;;;1.95;;
62123;SDS011;48110;47.532;19.078;2022-09-09T17:39:39;8.85;;;1.40;;
62123;SDS011;48110;47.532;19.078;2022-09-09T17:42:42;5.10;;;1.52;;
62123;SDS011;48110;47.532;19.078;2022-09-09T17:45:45;7.78;;;1.55;;
62123;SDS011;48110;47.532;19.078;2022-09-09T17:48:49;4.82;;;1.80;;
62123;SDS011;48110;47.532;19.078;2022-09-09T17:51:55;4.47;;;1.90;;
62123;SDS011;48110;47.532;19.078;2022-09-09T17:54:59;8.95;;;2.53;;
62123;SDS011;48110;47.532;19.078;2022-09-09T17:58:02;5.40;;;1.85;;
62123;SDS011;48110;47.532;19.078;2022-09-09T18:01:05;2.80;;;1.52;;
62123;SDS011;48110;47.532;19.078;2022-09-09T18:04:12;4.03;;;1.80;;
62123;SDS011;48110;47.532;19.078;2022-09-09T18:07:17;5.75;;;1.90;;
62123;SDS011;48110;47.532;19.078;2022-09-09T18:10:20;6.80;;;2.20;;
62123;SDS011;48110;47.532;19.078;2022-09-09T18:13:22;5.12;;;2.10;;
62123;SDS011;48110;47.532;19.078;2022-09-09T18:16:26;4.70;;;2.08;;
62123;SDS011;48110;47.532;19.078;2022-09-09T18:19:30;3.15;;;2.28;;
62123;SDS011;48110;47.532;19.078;2022-09-09T18:22:34;3.47;;;1.87;;
62123;SDS011;48110;47.532;19.078;2022-09-09T18:25:37;5.53;;;1.85;;
62123;SDS011;48110;47.532;19.078;2022-09-09T18:28:41;3.92;;;1.62;;
62123;SDS011;48110;47.532;19.078;2022-09-09T18:31:45;4.75;;;1.75;;
62123;SDS011;48110;47.532;19.078;2022-09-09T18:34:49;3.75;;;1.80;;
62123;SDS011;48110;47.532;19.078;2022-09-09T18:37:56;9.38;;;2.00;;
62123;SDS011;48110;47.532;19.078;2022-09-09T18:41:00;5.10;;;1.85;;
62123;SDS011;48110;47.532;19.078;2022-09-09T18:44:15;11.90;;;2.03;;
62123;SDS011;48110;47.532;19.078;2022-09-09T18:47:19;2.50;;;1.30;;
62123;SDS011;48110;47.532;19.078;2022-09-09T18:50:23;5.62;;;1.60;;
62123;SDS011;48110;47.532;19.078;2022-09-09T18:53:26;5.12;;;1.42;;
62123;SDS011;48110;47.532;19.078;2022-09-09T18:56:29;4.05;;;1.20;;
62123;SDS011;48110;47.532;19.078;2022-09-09T18:59:33;3.42;;;1.37;;
62123;SDS011;48110;47.532;19.078;2022-09-09T19:02:35;1.70;;;1.10;;
62123;SDS011;48110;47.532;19.078;2022-09-09T19:05:40;10.40;;;1.67;;
62123;SDS011;48110;47.532;19.078;2022-09-09T19:08:44;4.37;;;1.45;;
62123;SDS011;48110;47.532;19.078;2022-09-09T19:11:48;3.25;;;1.50;;
62123;SDS011;48110;47.532;19.078;2022-09-09T19:14:51;2.92;;;1.40;;
62123;SDS011;48110;47.532;19.078;2022-09-09T19:17:54;4.57;;;1.80;;
62123;SDS011;48110;47.532;19.078;2022-09-09T19:21:44;4.57;;;1.30;;
62123;SDS011;48110;47.532;19.078;2022-09-09T19:24:29;3.22;;;1.60;;
62123;SDS011;48110;47.532;19.078;2022-09-09T19:27:33;6.82;;;2.37;;
62123;SDS011;48110;47.532;19.078;2022-09-09T19:30:36;7.47;;;2.47;;
62123;SDS011;48110;47.532;19.078;2022-09-09T19:33:39;7.95;;;2.40;;
62123;SDS011;48110;47.532;19.078;2022-09-09T19:36:41;5.53;;;3.50;;
62123;SDS011;48110;47.532;19.078;2022-09-09T19:39:44;6.35;;;3.70;;
62123;SDS011;48110;47.532;19.078;2022-09-09T19:42:48;9.75;;;3.87;;
62123;SDS011;48110;47.532;19.078;2022-09-09T19:45:55;7.70;;;3.75;;
62123;SDS011;48110;47.532;19.078;2022-09-09T19:49:03;8.23;;;4.10;;
62123;SDS011;48110;47.532;19.078;2022-09-09T19:52:06;5.57;;;4.35;;
62123;SDS011;48110;47.532;19.078;2022-09-09T19:55:09;6.72;;;4.53;;
62123;SDS011;48110;47.532;19.078;2022-09-09T19:58:12;6.90;;;4.43;;
62123;SDS011;48110;47.532;19.078;2022-09-09T20:01:16;6.03;;;4.30;;
62123;SDS011;48110;47.532;19.078;2022-09-09T20:04:22;6.40;;;4.25;;
62123;SDS011;48110;47.532;19.078;2022-09-09T20:07:24;6.18;;;4.75;;
62123;SDS011;48110;47.532;19.078;2022-09-09T20:10:27;5.87;;;4.25;;
62123;SDS011;48110;47.532;19.078;2022-09-09T20:13:31;6.15;;;4.22;;
62123;SDS011;48110;47.532;19.078;2022-09-09T20:16:36;6.25;;;4.62;;